Flight Track Log - Related Links

Times and Time Zones

All times are in EDT time to prevent confusion due to time zone crossing. See the JUS827 flight status page for this flight to view local times or setup timezone preferences in your user account.

Time Position Orientation Groundspeed Altitude Reporting Facility
EDT Latitude Longitude Course Direction KTS MPH feet Rate Location/Type
Fri 05:44:03 AM 34.6553 -92.2356 175° South 210 242 3,400  Level Memphis Center
Fri 05:45:09 AM 34.5906 -92.2367 181° South 224 258 6,000 2,286 Climbing Memphis Center
Fri 05:46:09 AM 34.5175 -92.2350 179° South 237 273 8,200 2,100 Climbing Memphis Center
Fri 05:47:09 AM 34.4486 -92.2461 188° South 258 297 10,200 1,700 Climbing Memphis Center
Fri 05:48:09 AM 34.3911 -92.3128 224° Southwest 256 295 11,600 1,600 Climbing Memphis Center
Fri 05:49:09 AM 34.3294 -92.3844 224° Southwest 283 326 13,400 1,650 Climbing Memphis Center
Fri 05:50:09 AM 34.2658 -92.4508 221° Southwest 295 339 14,900 1,500 Climbing Memphis Center
Fri 05:51:09 AM 34.2000 -92.5169 220° Southwest 306 352 16,400 1,400 Climbing Memphis Center
Fri 05:52:09 AM 34.1239 -92.5778 213° Southwest 321 369 17,700 1,000 Climbing Memphis Center
Fri 05:53:09 AM 34.0561 -92.6361 215° Southwest 331 381 18,400 952 Climbing Memphis Center
Fri 05:55:18 AM 33.8703 -92.7683 211° Southwest 349 402 20,700 1,048 Climbing Fort Worth Center
Fri 05:56:18 AM 33.7872 -92.8303 212° Southwest 357 411 21,700 950 Climbing Fort Worth Center
Fri 05:57:18 AM 33.7125 -92.9039 219° Southwest 362 417 22,600 1,050 Climbing Fort Worth Center
Fri 05:58:18 AM 33.6336 -92.9731 216° Southwest 362 417 23,800 1,350 Climbing Fort Worth Center
Fri 05:59:18 AM 33.5525 -93.0417 215° Southwest 362 417 25,300 1,400 Climbing Fort Worth Center
Fri 06:00:18 AM 33.4736 -93.1081 215° Southwest 362 417 26,600 1,250 Climbing Fort Worth Center
Fri 06:01:18 AM 33.3942 -93.1692 213° Southwest 351 404 27,800 1,250 Climbing Fort Worth Center
Fri 06:02:18 AM 33.3128 -93.2300 212° Southwest 346 398 29,100 1,100 Climbing Fort Worth Center
Fri 06:03:18 AM 33.2356 -93.2908 213° Southwest 346 398 30,000 1,050 Climbing Fort Worth Center
Fri 06:04:18 AM 33.1581 -93.3517 213° Southwest 341 392 31,200 1,050 Climbing Fort Worth Center
Fri 06:05:18 AM 33.0808 -93.4119 213° Southwest 341 392 32,100 1,100 Climbing Fort Worth Center
Fri 06:06:18 AM 33.0031 -93.4625 209° Southwest 335 386 33,400 900 Climbing Fort Worth Center
Fri 06:07:18 AM 32.9297 -93.5228 215° Southwest 330 380 33,900 300 Climbing Fort Worth Center
Fri 06:08:18 AM 32.8564 -93.5803 213° Southwest 330 380 34,000 50 Climbing Fort Worth Center
Fri 06:09:18 AM 32.7789 -93.6406 213° Southwest 330 380 34,000  Level Fort Worth Center
Fri 06:10:18 AM 32.6994 -93.7031 214° Southwest 336 387 34,000  Level Fort Worth Center
Fri 06:11:18 AM 32.6258 -93.7556 211° Southwest 341 392 34,000  Level Fort Worth Center
Fri 06:12:18 AM 32.5442 -93.8178 213° Southwest 346 398 34,000  Level Fort Worth Center
Fri 06:13:18 AM 32.4753 -93.8969 224° Southwest 351 404 34,000  Level Fort Worth Center
Fri 06:14:18 AM 32.4067 -93.9758 224° Southwest 351 404 34,000  Level Fort Worth Center
Fri 06:15:18 AM 32.3356 -94.0525 222° Southwest 351 404 34,000  Level Fort Worth Center
Fri 06:16:18 AM 32.2644 -94.1239 220° Southwest 351 404 34,000  Level Fort Worth Center
Fri 06:17:18 AM 32.1853 -94.2125 223° Southwest 357 411 34,000  Level Fort Worth Center
Fri 06:18:18 AM 32.1097 -94.2839 219° Southwest 357 411 34,000  Level Fort Worth Center
Fri 06:20:21 AM 31.9636 -94.4300 220° Southwest 347 399 34,000  Level Houston Center
Fri 06:21:21 AM 31.8917 -94.5050 222° Southwest 347 399 34,000  Level Houston Center
Fri 06:22:21 AM 31.8250 -94.5861 226° Southwest 347 399 34,000  Level Houston Center
Fri 06:23:22 AM 31.7614 -94.6717 229° Southwest 349 402 34,000  Level Houston Center
Fri 06:24:22 AM 31.6944 -94.7519 226° Southwest 347 399 34,000  Level Houston Center
Fri 06:25:22 AM 31.6261 -94.8328 225° Southwest 351 404 34,000  Level Houston Center
Fri 06:26:22 AM 31.5561 -94.9114 224° Southwest 350 403 34,000  Level Houston Center
Fri 06:27:23 AM 31.4842 -94.9897 223° Southwest 353 406 34,000  Level Houston Center
Fri 06:28:23 AM 31.4119 -95.0658 222° Southwest 353 406 34,000  Level Houston Center
Fri 06:29:23 AM 31.3389 -95.1419 222° Southwest 353 406 34,000  Level Houston Center
Fri 06:30:23 AM 31.2664 -95.2189 222° Southwest 355 409 34,000  Level Houston Center
Fri 06:31:24 AM 31.1953 -95.2967 223° Southwest 353 406 34,000  Level Houston Center
Fri 06:32:24 AM 31.1206 -95.3728 221° Southwest 354 407 34,000  Level Houston Center
Fri 06:33:24 AM 31.0450 -95.4478 220° Southwest 355 409 34,000  Level Houston Center
Fri 06:34:25 AM 30.9522 -95.5358 219° Southwest 357 411 34,000  Level Houston Center
Fri 06:35:25 AM 30.8725 -95.6072 218° Southwest 359 413 34,000  Level Houston Center
Fri 06:36:25 AM 30.7936 -95.6806 219° Southwest 363 418 34,000  Level Houston Center
Fri 06:37:26 AM 30.7219 -95.7614 224° Southwest 360 414 34,000  Level Houston Center
Fri 06:38:26 AM 30.6472 -95.8392 222° Southwest 362 417 34,000  Level Houston Center
Fri 06:39:26 AM 30.5697 -95.9175 221° Southwest 368 423 34,000  Level Houston Center
Fri 06:40:26 AM 30.4908 -95.9908 219° Southwest 366 421 34,000  Level Houston Center
Fri 06:41:27 AM 30.4103 -96.0603 217° Southwest 368 423 34,000  Level Houston Center
Fri 06:42:27 AM 30.3267 -96.1322 217° Southwest 369 425 34,000  Level Houston Center
Fri 06:43:27 AM 30.2411 -96.2003 215° Southwest 369 425 34,000  Level Houston Center
Fri 06:44:28 AM 30.1528 -96.2667 213° Southwest 373 429 34,000  Level Houston Center
Fri 06:45:28 AM 30.0750 -96.3228 212° Southwest 371 427 34,000  Level Houston Center
Fri 06:46:28 AM 29.9867 -96.3861 212° Southwest 373 429 34,000  Level Houston Center
Fri 06:47:29 AM 29.9108 -96.4647 222° Southwest 369 425 34,000  Level Houston Center
Fri 06:48:29 AM 29.8378 -96.5453 224° Southwest 365 420 34,000  Level Houston Center
Fri 06:49:29 AM 29.7619 -96.6239 222° Southwest 366 421 34,000  Level Houston Center
Fri 06:50:30 AM 29.6853 -96.7008 221° Southwest 367 422 34,000  Level Houston Center
Fri 06:51:30 AM 29.6078 -96.7769 221° Southwest 368 423 34,000  Level Houston Center
Fri 06:52:31 AM 29.5294 -96.8506 219° Southwest 368 423 34,000  Level Houston Center
Fri 06:53:31 AM 29.4336 -96.9375 218° Southwest 371 427 34,000  Level Houston Center
Fri 06:54:31 AM 29.3522 -97.0069 217° Southwest 375 432 34,000  Level Houston Center
Fri 06:55:32 AM 29.2786 -97.0867 223° Southwest 369 425 34,000  Level Houston Center
Fri 06:56:32 AM 29.2067 -97.1686 225° Southwest 368 423 34,000  Level Houston Center
Fri 06:57:32 AM 29.1336 -97.2497 224° Southwest 367 422 34,000  Level Houston Center
Fri 06:58:33 AM 29.0575 -97.3292 222° Southwest 370 426 34,000  Level Houston Center
Fri 06:59:33 AM 28.9811 -97.4089 222° Southwest 372 428 34,000  Level Houston Center
Fri 07:00:34 AM 28.9067 -97.4897 224° Southwest 370 426 34,000  Level Houston Center
Fri 07:01:34 AM 28.8311 -97.5708 223° Southwest 373 429 34,000  Level Houston Center
Fri 07:02:35 AM 28.7536 -97.6486 221° Southwest 371 427 34,000  Level Houston Center
Fri 07:03:35 AM 28.6797 -97.7314 225° Southwest 372 428 34,000  Level Houston Center
Fri 07:04:36 AM 28.6058 -97.8119 224° Southwest 368 423 34,000  Level Houston Center
Fri 07:05:36 AM 28.5419 -97.9039 232° Southwest 367 422 34,000 -1,200 Level Houston Center
Fri 07:06:36 AM 28.4844 -98.0039 237° Southwest 377 434 31,600 -2,529 Descending Houston Center
Fri 07:07:37 AM 28.4233 -98.1181 239° Southwest 406 467 28,900 -2,361 Descending Houston Center
Fri 07:08:38 AM 28.3750 -98.2283 244° Southwest 393 452 26,800 -2,479 Descending Houston Center
Fri 07:09:38 AM 28.3267 -98.3375 243° Southwest 389 448 23,900 -2,430 Descending Houston Center
Fri 07:10:39 AM 28.2806 -98.4486 245° Southwest 391 450 21,900 -2,331 Descending Houston Center
Fri 07:11:39 AM 28.2364 -98.5561 245° Southwest 378 435 19,200 -3,174 Descending Houston Center
Fri 07:12:40 AM 28.1911 -98.6950 250° West 391 450 15,500 -3,098 Descending Houston Center
Fri 07:13:41 AM 28.1589 -98.8069 252° West 382 440 12,900 -2,311 Descending Houston Center
Fri 07:14:42 AM 28.1256 -98.8953 247° West 344 396 10,800 -2,083 Descending Houston Center
Fri 07:15:42 AM 28.0619 -98.9536 219° Southwest 314 361 8,700 -2,132 Descending Houston Center
Fri 07:16:43 AM 28.0122 -99.0108 225° Southwest 279 321 6,500 -1,328 Descending Houston Center
Fri 07:17:44 AM 27.9928 -99.0872 254° West 262 302 6,000 -246 Descending Houston Center
Fri 07:18:45 AM 27.9794 -99.1586 258° West 247 284 6,000 -397 Level Houston Center
Fri 07:19:45 AM 27.9669 -99.2344 259° West 244 281 5,200 -1,091 Descending Houston Center
Fri 07:20:46 AM 27.9533 -99.3100 258° West 246 283 3,800 -1,082 Descending Houston Center
Fri 07:21:47 AM 27.9272 -99.3672 243° Southwest 222 255 3,000 -393 Descending Houston Center
Fri 07:22:48 AM 27.8900 -99.3922 211° Southwest 180 207 3,000  Level Houston Center
Fri 07:23:49 AM 27.8561 -99.4211 217° Southwest 160 184 3,000  Level Houston Center
Fri 07:24:50 AM 27.8133 -99.4497 211° Southwest 156 180 3,000  Level Houston Center
Fri 07:25:51 AM 27.7731 -99.4517 182° South 149 171 3,000  Level Houston Center
Fri 07:26:52 AM 27.7319 -99.4533 182° South 148 170 3,000  Level Houston Center
Fri 07:27:52 AM 27.6928 -99.4553 183° South 146 168 3,000 -248 Level Houston Center
Fri 07:28:53 AM 27.6578 -99.4578 184° South 137 158 2,500 -541 Descending Houston Center
Fri 07:29:54 AM 27.6258 -99.4581 180° South 127 146 1,900 -639 Descending Houston Center
Fri 07:30:55 AM 27.5903 -99.4600 183° South 125 144 1,200 -689 Descending Houston Center
Fri 07:31:56 AM 27.5533 -99.4617 182° South 128 147 500 -689 Descending Houston Center

Login

Don't have an account? Register now (free) for customized features, flight alerts, and more!